createdAt,value
2019-04-05T00:00:33.374Z,31.50
2019-04-05T00:01:08.994Z,31.70
2019-04-05T00:01:42.019Z,31.37
2019-04-05T00:02:15.905Z,31.20
2019-04-05T00:02:48.996Z,31.42
2019-04-05T00:03:21.915Z,31.35
2019-04-05T00:03:56.107Z,31.35
2019-04-05T00:04:29.005Z,31.87
2019-04-05T00:05:04.495Z,31.85
2019-04-05T00:05:37.465Z,31.30
2019-04-05T00:06:10.365Z,31.23
2019-04-05T00:06:43.395Z,30.95
2019-04-05T00:07:16.391Z,30.50
2019-04-05T00:07:49.512Z,31.35
2019-04-05T00:08:24.063Z,31.40
2019-04-05T00:08:57.209Z,31.35
2019-04-05T00:09:31.331Z,30.90
2019-04-05T00:10:04.779Z,31.33
2019-04-05T00:10:38.025Z,30.95
2019-04-05T00:11:11.073Z,30.97
2019-04-05T00:11:44.844Z,30.75
2019-04-05T00:12:17.759Z,31.10
2019-04-05T00:12:50.909Z,30.77
2019-04-05T00:13:23.797Z,31.02
2019-04-05T00:13:56.842Z,31.55
2019-04-05T00:14:29.742Z,31.50
2019-04-05T00:15:14.700Z,30.95
2019-04-05T00:15:39.772Z,31.25
2019-04-05T00:16:12.907Z,31.37
2019-04-05T00:16:45.860Z,31.25
2019-04-05T00:17:18.931Z,31.15
2019-04-05T00:17:52.723Z,31.10
2019-04-05T00:18:25.707Z,31.50
2019-04-05T00:18:58.879Z,31.15
2019-04-05T00:19:31.891Z,30.88
2019-04-05T00:20:06.064Z,31.52
2019-04-05T00:20:39.233Z,31.02
2019-04-05T00:21:12.299Z,31.48
2019-04-05T00:21:45.972Z,31.50
2019-04-05T00:22:18.921Z,31.12
2019-04-05T00:22:51.944Z,31.62
2019-04-05T00:23:25.113Z,31.30
2019-04-05T00:23:59.612Z,30.60
2019-04-05T00:24:32.883Z,31.10
2019-04-05T00:25:06.399Z,31.77
2019-04-05T00:25:39.427Z,31.37
2019-04-05T00:26:12.791Z,30.82
2019-04-05T00:26:45.885Z,31.37
2019-04-05T00:27:18.857Z,30.77
2019-04-05T00:27:51.723Z,31.80
2019-04-05T00:28:24.866Z,31.40
2019-04-05T00:28:57.931Z,31.07
2019-04-05T00:29:31.585Z,30.77
2019-04-05T00:30:05.649Z,31.52
2019-04-05T00:30:38.587Z,30.60
2019-04-05T00:31:11.612Z,30.82
2019-04-05T00:31:44.621Z,30.75
2019-04-05T00:32:17.577Z,30.50
2019-04-05T00:32:50.446Z,30.90
2019-04-05T00:33:23.471Z,31.12
2019-04-05T00:33:56.361Z,31.50
2019-04-05T00:34:29.238Z,31.30
2019-04-05T00:35:02.481Z,31.40
2019-04-05T00:35:35.681Z,31.35
2019-04-05T00:36:08.730Z,31.65
2019-04-05T00:36:41.723Z,31.02
2019-04-05T00:37:14.885Z,31.10
2019-04-05T00:37:47.903Z,30.97
2019-04-05T00:38:20.757Z,30.97
2019-04-05T00:38:53.729Z,30.77
2019-04-05T00:39:26.812Z,31.00
2019-04-05T00:40:00.315Z,30.80
2019-04-05T00:40:33.268Z,30.95
2019-04-05T00:41:06.310Z,30.92
2019-04-05T00:41:39.345Z,31.02
2019-04-05T00:42:12.387Z,30.57
2019-04-05T00:42:45.445Z,30.90
2019-04-05T00:43:18.593Z,30.92
2019-04-05T00:43:51.716Z,30.27
2019-04-05T00:44:24.757Z,30.40
2019-04-05T00:44:57.981Z,30.70
2019-04-05T00:45:31.001Z,31.00
2019-04-05T00:46:04.103Z,30.75
2019-04-05T00:46:37.129Z,30.60
2019-04-05T00:47:10.159Z,30.27
2019-04-05T00:47:43.213Z,31.02
2019-04-05T00:48:16.236Z,30.68
2019-04-05T00:48:49.283Z,30.45
2019-04-05T00:49:22.291Z,30.95
2019-04-05T00:49:55.240Z,30.88
2019-04-05T00:50:28.224Z,30.23
2019-04-05T00:51:01.252Z,30.52
2019-04-05T00:51:34.251Z,30.97
2019-04-05T00:52:07.367Z,30.52
2019-04-05T00:52:40.255Z,30.15
2019-04-05T00:53:13.273Z,31.02
2019-04-05T00:53:46.285Z,30.62
2019-04-05T00:54:19.331Z,31.10
2019-04-05T00:54:52.215Z,30.43
2019-04-05T00:55:25.135Z,30.82
2019-04-05T00:55:58.141Z,30.52
2019-04-05T00:56:31.195Z,30.40
2019-04-05T00:57:04.221Z,30.72
2019-04-05T00:57:37.247Z,31.00
2019-04-05T00:58:10.231Z,30.72
2019-04-05T00:58:43.253Z,30.75
2019-04-05T00:59:16.244Z,30.35
2019-04-05T00:59:49.255Z,30.88
2019-04-05T01:00:22.364Z,30.40
2019-04-05T01:00:55.385Z,30.45
2019-04-05T01:01:28.390Z,30.80
2019-04-05T01:02:01.489Z,30.40
2019-04-05T01:02:34.514Z,30.17
2019-04-05T01:03:07.851Z,31.20
2019-04-05T01:03:40.747Z,30.77
2019-04-05T01:04:13.653Z,30.55
2019-04-05T01:04:46.529Z,30.68
2019-04-05T01:05:19.637Z,30.57
2019-04-05T01:05:52.623Z,30.45
2019-04-05T01:06:27.467Z,30.12
2019-04-05T01:07:00.593Z,30.27
2019-04-05T01:07:33.623Z,30.20
2019-04-05T01:08:06.713Z,30.00
2019-04-05T01:08:39.952Z,30.43
2019-04-05T01:09:12.965Z,29.80
2019-04-05T01:09:46.147Z,30.15
2019-04-05T01:10:19.492Z,30.12
2019-04-05T01:10:52.531Z,30.80
2019-04-05T01:11:27.187Z,30.05
2019-04-05T01:12:00.787Z,30.25
2019-04-05T01:12:35.397Z,30.17
2019-04-05T01:13:08.533Z,30.68
2019-04-05T01:13:41.934Z,30.17
2019-04-05T01:14:15.472Z,30.52
2019-04-05T01:14:50.439Z,30.50
2019-04-05T01:15:23.469Z,30.15
2019-04-05T01:15:56.546Z,30.72
2019-04-05T01:16:29.583Z,30.52
2019-04-05T01:17:02.708Z,30.55
2019-04-05T01:17:36.597Z,30.12
2019-04-05T01:18:09.921Z,30.50
2019-04-05T01:18:42.915Z,30.30
2019-04-05T01:19:16.425Z,31.00
2019-04-05T01:19:50.647Z,31.50
2019-04-05T01:20:27.425Z,30.55
2019-04-05T01:21:02.639Z,30.32
2019-04-05T01:21:41.619Z,30.50
2019-04-05T01:22:15.340Z,30.32
2019-04-05T01:22:48.387Z,30.17
2019-04-05T01:23:22.077Z,30.17
2019-04-05T01:23:58.542Z,30.10
2019-04-05T01:24:31.533Z,30.20
2019-04-05T01:25:05.248Z,30.25
2019-04-05T01:25:39.075Z,30.45
2019-04-05T01:26:13.834Z,30.40
2019-04-05T01:26:47.947Z,29.37
2019-04-05T01:27:23.515Z,30.17
2019-04-05T01:27:56.623Z,29.90
2019-04-05T01:28:29.735Z,29.40
2019-04-05T01:29:02.874Z,29.65
2019-04-05T01:29:35.908Z,29.15
2019-04-05T01:30:12.220Z,30.17
2019-04-05T01:30:45.143Z,30.00
2019-04-05T01:31:18.215Z,29.87
2019-04-05T01:31:51.266Z,29.60
2019-04-05T01:32:24.338Z,29.85
2019-04-05T01:32:57.518Z,29.98
2019-04-05T01:33:30.517Z,30.10
2019-04-05T01:34:05.505Z,30.35
2019-04-05T01:34:38.697Z,30.10
2019-04-05T01:35:11.816Z,29.75
2019-04-05T01:35:44.827Z,29.98
2019-04-05T01:36:17.849Z,29.85
2019-04-05T01:36:50.871Z,30.43
2019-04-05T01:37:24.414Z,30.02
2019-04-05T01:37:57.449Z,30.48
2019-04-05T01:38:30.515Z,30.10
2019-04-05T01:39:05.298Z,29.60
2019-04-05T01:39:38.279Z,30.05
2019-04-05T01:40:11.483Z,29.65
2019-04-05T01:40:46.210Z,30.00
2019-04-05T01:41:19.242Z,29.90
2019-04-05T01:41:52.175Z,29.80
2019-04-05T01:42:25.425Z,29.90
2019-04-05T01:42:58.588Z,30.40
2019-04-05T01:43:32.681Z,29.70
2019-04-05T01:44:06.011Z,29.72
2019-04-05T01:44:39.987Z,30.62
2019-04-05T01:45:13.124Z,29.50
2019-04-05T01:45:53.500Z,29.95
2019-04-05T01:46:21.221Z,30.68
2019-04-05T01:46:54.307Z,29.50
2019-04-05T01:47:28.411Z,30.32
2019-04-05T01:48:01.392Z,29.82
2019-04-05T01:48:34.525Z,29.70
2019-04-05T01:49:07.535Z,30.35
2019-04-05T01:49:40.680Z,30.23
2019-04-05T01:50:13.791Z,29.82
2019-04-05T01:50:46.861Z,30.40
2019-04-05T01:51:19.879Z,30.27
2019-04-05T01:51:53.045Z,29.98
2019-04-05T01:52:26.044Z,30.32
2019-04-05T01:52:59.329Z,30.08
2019-04-05T01:53:32.406Z,30.05
2019-04-05T01:54:05.561Z,30.02
2019-04-05T01:54:38.531Z,30.02
2019-04-05T01:55:11.749Z,30.57
2019-04-05T01:55:44.742Z,30.23
2019-04-05T01:56:17.679Z,29.77
2019-04-05T01:56:50.593Z,30.37
2019-04-05T01:57:23.426Z,30.72
2019-04-05T01:57:56.327Z,30.10
2019-04-05T01:58:29.393Z,30.23
2019-04-05T01:59:02.492Z,30.02
2019-04-05T01:59:35.407Z,30.02
2019-04-05T02:00:10.377Z,30.33
2019-04-05T02:00:43.501Z,30.00
2019-04-05T02:01:16.395Z,30.70
2019-04-05T02:01:49.663Z,29.95
2019-04-05T02:02:22.654Z,30.20
2019-04-05T02:02:55.897Z,30.62
2019-04-05T02:03:28.789Z,30.55
2019-04-05T02:04:01.819Z,29.90
2019-04-05T02:04:34.714Z,30.10
2019-04-05T02:05:08.175Z,30.75
2019-04-05T02:05:41.935Z,30.27
2019-04-05T02:06:15.357Z,30.75
2019-04-05T02:06:48.439Z,30.35
2019-04-05T02:07:21.548Z,30.50
2019-04-05T02:07:54.761Z,30.77
2019-04-05T02:08:28.059Z,30.20
2019-04-05T02:09:01.169Z,30.45
2019-04-05T02:09:35.158Z,30.08
2019-04-05T02:10:09.490Z,30.70
2019-04-05T02:10:42.535Z,30.70
2019-04-05T02:11:15.531Z,30.80
2019-04-05T02:11:48.648Z,30.77
2019-04-05T02:12:21.727Z,30.17
2019-04-05T02:12:54.927Z,30.17
2019-04-05T02:13:27.936Z,30.35
2019-04-05T02:14:00.849Z,30.68
2019-04-05T02:14:33.949Z,30.57
2019-04-05T02:15:08.443Z,30.45
2019-04-05T02:15:41.648Z,30.70
2019-04-05T02:16:14.687Z,30.80
2019-04-05T02:16:47.785Z,30.75
2019-04-05T02:17:20.748Z,31.05
2019-04-05T02:17:54.385Z,30.80
2019-04-05T02:18:27.354Z,30.77
2019-04-05T02:19:00.361Z,30.43
2019-04-05T02:19:33.440Z,30.82
2019-04-05T02:20:07.425Z,30.95
2019-04-05T02:20:40.581Z,30.77
2019-04-05T02:21:13.579Z,30.48
2019-04-05T02:21:46.587Z,31.07
2019-04-05T02:22:19.479Z,30.02
2019-04-05T02:22:53.812Z,30.30
2019-04-05T02:23:26.833Z,30.65
2019-04-05T02:24:01.559Z,30.52
2019-04-05T02:24:34.585Z,30.60
2019-04-05T02:25:07.624Z,31.00
2019-04-05T02:25:40.609Z,30.37
2019-04-05T02:26:14.035Z,30.40
2019-04-05T02:26:47.057Z,30.88
2019-04-05T02:27:20.102Z,30.60
2019-04-05T02:27:53.224Z,30.72
2019-04-05T02:28:26.253Z,30.70
2019-04-05T02:28:59.243Z,30.90
2019-04-05T02:29:32.373Z,30.05
2019-04-05T02:30:05.614Z,29.85
2019-04-05T02:30:41.460Z,30.72
2019-04-05T02:31:14.539Z,30.77
2019-04-05T02:31:47.710Z,30.27
2019-04-05T02:32:20.698Z,30.77
2019-04-05T02:32:53.938Z,30.30
2019-04-05T02:33:26.831Z,29.95
2019-04-05T02:34:01.315Z,30.10
2019-04-05T02:34:34.352Z,30.65
2019-04-05T02:35:08.198Z,30.55
2019-04-05T02:35:41.293Z,30.50
2019-04-05T02:36:15.448Z,30.25
2019-04-05T02:36:48.548Z,30.45
2019-04-05T02:37:21.683Z,30.75
2019-04-05T02:37:54.697Z,30.68
2019-04-05T02:38:27.797Z,30.32
2019-04-05T02:39:00.805Z,30.17
2019-04-05T02:39:33.849Z,30.50
2019-04-05T02:40:10.568Z,30.40
2019-04-05T02:40:45.091Z,30.80
2019-04-05T02:41:20.103Z,30.68
2019-04-05T02:41:55.313Z,31.07
2019-04-05T02:42:28.465Z,30.35
2019-04-05T02:43:02.694Z,30.27
2019-04-05T02:43:37.509Z,30.48
2019-04-05T02:44:12.524Z,30.20
2019-04-05T02:44:47.578Z,30.10
2019-04-05T02:45:21.304Z,30.72
2019-04-05T02:45:55.667Z,30.52
2019-04-05T02:46:30.790Z,30.45
2019-04-05T02:47:04.500Z,30.72
2019-04-05T02:47:38.849Z,30.60
2019-04-05T02:48:13.768Z,30.90
2019-04-05T02:48:47.593Z,30.90
2019-04-05T02:49:23.247Z,30.60
2019-04-05T02:49:57.358Z,30.02
2019-04-05T02:50:32.976Z,30.30
2019-04-05T02:51:06.557Z,30.40
2019-04-05T02:51:42.680Z,30.30
2019-04-05T02:52:17.740Z,30.70
2019-04-05T02:52:55.106Z,30.08
2019-04-05T02:53:28.424Z,30.40
2019-04-05T02:54:02.103Z,30.80
2019-04-05T02:54:35.210Z,30.37
2019-04-05T02:55:09.150Z,30.60
2019-04-05T02:55:42.866Z,30.27
2019-04-05T02:56:17.602Z,30.55
2019-04-05T02:56:50.886Z,30.20
2019-04-05T02:57:24.537Z,30.57
2019-04-05T02:57:58.944Z,30.65
2019-04-05T02:58:35.369Z,31.00
2019-04-05T02:59:08.442Z,30.48
2019-04-05T02:59:42.325Z,30.32
2019-04-05T03:00:15.338Z,30.65
2019-04-05T03:00:49.073Z,30.60
2019-04-05T03:01:22.818Z,30.70
2019-04-05T03:01:56.912Z,30.10
2019-04-05T03:02:30.556Z,30.70
2019-04-05T03:03:05.610Z,30.20
2019-04-05T03:03:39.305Z,30.40
2019-04-05T03:04:12.855Z,30.52
2019-04-05T03:04:45.851Z,30.52
2019-04-05T03:05:20.805Z,30.35
2019-04-05T03:05:54.306Z,30.45
2019-04-05T03:06:27.503Z,30.68
2019-04-05T03:07:00.839Z,29.95
2019-04-05T03:07:34.003Z,30.37
2019-04-05T03:08:07.920Z,30.65
2019-04-05T03:08:41.798Z,30.95
2019-04-05T03:09:15.202Z,30.40
2019-04-05T03:09:48.874Z,30.17
2019-04-05T03:10:57.302Z,30.43
2019-04-05T03:11:32.460Z,29.90
2019-04-05T03:12:05.675Z,30.02
2019-04-05T03:12:38.682Z,30.70
2019-04-05T03:13:11.684Z,30.50
2019-04-05T03:13:51.066Z,30.48
2019-04-05T03:14:24.854Z,30.40
2019-04-05T03:14:59.808Z,30.30
2019-04-05T03:15:32.918Z,29.92
2019-04-05T03:16:13.446Z,30.37
2019-04-05T03:16:48.762Z,30.10
2019-04-05T03:17:22.549Z,30.27
2019-04-05T03:17:55.542Z,29.37
2019-04-05T03:18:30.055Z,30.15
2019-04-05T03:19:18.657Z,29.87
2019-04-05T03:19:55.350Z,29.87
2019-04-05T03:20:28.534Z,30.08
2019-04-05T03:21:06.020Z,30.50
2019-04-05T03:21:44.142Z,29.80
2019-04-05T03:22:18.597Z,30.00
2019-04-05T03:22:51.668Z,30.27
2019-04-05T03:23:25.548Z,29.85
2019-04-05T03:24:03.232Z,29.60
2019-04-05T03:24:40.213Z,30.12
2019-04-05T03:25:13.471Z,30.15
2019-04-05T03:25:48.297Z,30.32
2019-04-05T03:26:26.436Z,30.27
2019-04-05T03:27:12.038Z,30.40
2019-04-05T03:27:45.089Z,30.45
2019-04-05T03:28:19.231Z,29.90
2019-04-05T03:28:56.030Z,30.10
2019-04-05T03:29:30.070Z,29.90
2019-04-05T03:30:04.774Z,30.10
2019-04-05T03:30:37.786Z,29.90
2019-04-05T03:31:11.458Z,29.55
2019-04-05T03:31:45.189Z,30.10
2019-04-05T03:32:18.863Z,29.67
2019-04-05T03:32:51.912Z,29.65
2019-04-05T03:33:24.962Z,29.95
2019-04-05T03:33:58.204Z,30.05
2019-04-05T03:34:31.378Z,30.50
2019-04-05T03:35:05.082Z,30.27
2019-04-05T03:35:38.802Z,29.45
2019-04-05T03:36:11.853Z,29.27
2019-04-05T03:36:45.093Z,29.82
2019-04-05T03:37:18.596Z,29.80
2019-04-05T03:37:51.872Z,29.57
2019-04-05T03:38:25.133Z,29.60
2019-04-05T03:38:58.301Z,29.80
2019-04-05T03:39:32.302Z,29.90
2019-04-05T03:40:05.510Z,29.67
2019-04-05T03:40:38.533Z,29.82
2019-04-05T03:41:11.782Z,29.60
2019-04-05T03:41:44.800Z,29.92
2019-04-05T03:42:18.643Z,29.60
2019-04-05T03:42:53.542Z,29.55
2019-04-05T03:43:26.771Z,29.57
2019-04-05T03:43:59.858Z,29.87
2019-04-05T03:44:33.022Z,29.87
2019-04-05T03:45:06.222Z,30.35
2019-04-05T03:45:39.761Z,29.65
2019-04-05T03:46:13.076Z,29.55
2019-04-05T03:46:56.188Z,29.67
2019-04-05T03:47:21.396Z,30.50
2019-04-05T03:47:54.602Z,29.92
2019-04-05T03:48:27.713Z,29.90
2019-04-05T03:49:02.517Z,30.40
2019-04-05T03:49:35.559Z,30.20
2019-04-05T03:50:08.701Z,29.95
2019-04-05T03:50:45.109Z,30.75
2019-04-05T03:51:18.471Z,30.65
2019-04-05T03:51:51.829Z,30.48
2019-04-05T03:52:24.886Z,30.08
2019-04-05T03:52:57.919Z,30.17
2019-04-05T03:53:31.156Z,30.43
2019-04-05T03:54:04.881Z,30.30
2019-04-05T03:54:37.946Z,30.08
2019-04-05T03:55:11.537Z,30.27
2019-04-05T03:55:45.040Z,30.23
2019-04-05T03:56:18.517Z,30.35
2019-04-05T03:56:51.785Z,30.20
2019-04-05T03:57:24.921Z,30.15
2019-04-05T03:57:58.344Z,30.43
2019-04-05T03:58:31.703Z,30.35
2019-04-05T03:59:05.420Z,30.83
2019-04-05T03:59:38.514Z,30.08
2019-04-05T04:00:11.545Z,30.50
2019-04-05T04:00:44.600Z,30.30
2019-04-05T04:01:17.722Z,30.55
2019-04-05T04:01:51.053Z,30.43
2019-04-05T04:02:24.220Z,30.70
2019-04-05T04:02:57.209Z,30.50
2019-04-05T04:03:30.534Z,30.25
2019-04-05T04:04:03.840Z,30.37
2019-04-05T04:04:37.852Z,30.60
2019-04-05T04:05:11.452Z,30.37
2019-04-05T04:05:44.660Z,30.62
2019-04-05T04:06:17.676Z,30.62
2019-04-05T04:06:50.732Z,30.97
2019-04-05T04:07:23.745Z,30.80
2019-04-05T04:07:58.294Z,31.10
2019-04-05T04:08:31.581Z,30.70
2019-04-05T04:09:06.023Z,30.37
2019-04-05T04:09:39.005Z,30.17
2019-04-05T04:10:16.550Z,30.90
2019-04-05T04:10:51.028Z,31.20
2019-04-05T04:11:24.395Z,30.55
2019-04-05T04:11:57.414Z,31.42
2019-04-05T04:12:30.414Z,31.00
2019-04-05T04:13:03.737Z,31.12
2019-04-05T04:13:37.335Z,30.32
2019-04-05T04:14:10.664Z,30.68
2019-04-05T04:14:43.989Z,30.80
2019-04-05T04:15:17.390Z,30.75
2019-04-05T04:15:51.320Z,30.60
2019-04-05T04:16:24.423Z,30.75
2019-04-05T04:17:11.573Z,31.10
2019-04-05T04:17:32.556Z,30.45
2019-04-05T04:18:05.596Z,30.55
2019-04-05T04:18:38.640Z,30.32
2019-04-05T04:19:12.167Z,30.60
2019-04-05T04:19:45.160Z,30.45
2019-04-05T04:20:53.705Z,31.10
2019-04-05T04:22:10.135Z,30.37
2019-04-05T04:22:43.452Z,29.90
2019-04-05T04:23:17.290Z,30.60
2019-04-05T04:23:50.373Z,30.68
2019-04-05T04:24:23.463Z,30.45
2019-04-05T04:24:57.287Z,30.35
2019-04-05T04:25:30.469Z,30.35
2019-04-05T04:26:04.164Z,30.65
2019-04-05T04:26:37.566Z,30.20
2019-04-05T04:27:11.143Z,30.35
2019-04-05T04:27:44.346Z,30.45
2019-04-05T04:28:17.402Z,30.17
2019-04-05T04:28:50.387Z,30.00
2019-04-05T04:29:23.378Z,30.30
2019-04-05T04:30:00.242Z,30.50
2019-04-05T04:30:32.454Z,30.40
2019-04-05T04:31:05.678Z,30.40
2019-04-05T04:31:38.710Z,30.50
2019-04-05T04:32:12.247Z,30.43
2019-04-05T04:32:45.206Z,30.57
2019-04-05T04:33:18.314Z,30.27
2019-04-05T04:33:51.704Z,30.15
2019-04-05T04:34:24.968Z,30.55
2019-04-05T04:34:58.496Z,30.65
2019-04-05T04:35:32.099Z,30.23
2019-04-05T04:36:05.247Z,30.50
2019-04-05T04:36:38.463Z,31.05
2019-04-05T04:37:11.778Z,30.62
2019-04-05T04:37:45.101Z,30.25
2019-04-05T04:38:18.210Z,29.98
2019-04-05T04:38:51.332Z,30.27
2019-04-05T04:39:24.576Z,31.02
2019-04-05T04:39:58.245Z,30.80
2019-04-05T04:40:32.088Z,30.37
2019-04-05T04:41:05.075Z,30.32
2019-04-05T04:41:38.110Z,30.20
2019-04-05T04:42:11.442Z,30.60
2019-04-05T04:42:44.532Z,30.02
2019-04-05T04:43:17.881Z,30.23
2019-04-05T04:43:51.189Z,30.48
2019-04-05T04:44:24.677Z,30.10
2019-04-05T04:45:11.028Z,30.88
2019-04-05T04:45:32.710Z,30.60
2019-04-05T04:46:06.889Z,30.30
2019-04-05T04:46:39.907Z,30.20
2019-04-05T04:47:25.477Z,30.05
2019-04-05T04:47:48.045Z,30.80
2019-04-05T04:48:21.084Z,30.20
2019-04-05T04:48:54.326Z,30.50
2019-04-05T04:49:27.629Z,30.35
2019-04-05T04:50:00.859Z,30.60
2019-04-05T04:50:34.796Z,30.32
2019-04-05T04:51:08.058Z,30.48
2019-04-05T04:51:41.126Z,29.75
2019-04-05T04:52:14.770Z,30.50
2019-04-05T04:52:48.013Z,30.23
2019-04-05T04:53:22.012Z,30.40
2019-04-05T04:53:55.509Z,30.20
2019-04-05T04:54:28.924Z,30.00
2019-04-05T04:55:02.184Z,30.15
2019-04-05T04:55:35.294Z,30.10
2019-04-05T04:56:08.560Z,30.43
2019-04-05T04:56:43.530Z,30.00
2019-04-05T04:57:18.130Z,30.15
2019-04-05T04:57:51.407Z,29.92
2019-04-05T04:58:24.550Z,30.55
2019-04-05T04:58:57.620Z,29.75
2019-04-05T04:59:31.084Z,30.65
2019-04-05T05:00:04.615Z,30.12
2019-04-05T05:00:37.707Z,30.02
2019-04-05T05:01:10.650Z,30.48
2019-04-05T05:01:44.573Z,30.30
2019-04-05T05:02:17.833Z,30.40
2019-04-05T05:02:50.830Z,29.77
2019-04-05T05:03:23.950Z,29.95
2019-04-05T05:03:57.041Z,30.23
2019-04-05T05:04:30.269Z,29.50
2019-04-05T05:05:04.273Z,30.48
2019-04-05T05:05:37.295Z,30.17
2019-04-05T05:06:10.500Z,30.00
2019-04-05T05:06:43.615Z,29.37
2019-04-05T05:07:17.042Z,29.85
2019-04-05T05:07:50.452Z,30.45
2019-04-05T05:08:23.437Z,29.95
2019-04-05T05:08:56.565Z,30.57
2019-04-05T05:09:29.757Z,30.55
2019-04-05T05:10:03.651Z,30.00
2019-04-05T05:10:36.911Z,29.98
2019-04-05T05:11:14.908Z,30.20
2019-04-05T05:11:45.260Z,29.63
2019-04-05T05:12:18.493Z,30.40
2019-04-05T05:12:51.610Z,29.70
2019-04-05T05:13:24.850Z,30.27
2019-04-05T05:13:57.892Z,29.70
2019-04-05T05:14:31.322Z,30.10
2019-04-05T05:15:06.966Z,30.50
2019-04-05T05:15:40.046Z,30.40
2019-04-05T05:16:13.179Z,30.05
2019-04-05T05:16:46.741Z,29.60
2019-04-05T05:17:20.205Z,29.60
2019-04-05T05:17:58.914Z,29.92
2019-04-05T05:18:28.827Z,30.20
2019-04-05T05:19:02.003Z,29.98
2019-04-05T05:19:35.270Z,29.75
2019-04-05T05:20:08.812Z,29.82
2019-04-05T05:20:42.900Z,29.80
2019-04-05T05:21:16.020Z,29.77
2019-04-05T05:21:49.268Z,30.32
2019-04-05T05:22:22.786Z,29.48
2019-04-05T05:22:57.312Z,30.02
2019-04-05T05:23:30.680Z,30.30
2019-04-05T05:24:03.959Z,30.10
2019-04-05T05:24:37.210Z,29.95
2019-04-05T05:25:10.774Z,29.50
2019-04-05T05:25:46.786Z,29.37
2019-04-05T05:26:19.115Z,29.87
2019-04-05T05:26:52.280Z,30.02
2019-04-05T05:27:26.047Z,29.77
2019-04-05T05:27:59.697Z,29.98
2019-04-05T05:28:32.969Z,30.17
2019-04-05T05:29:06.193Z,30.10
2019-04-05T05:29:39.320Z,29.95
2019-04-05T05:30:12.512Z,29.80
2019-04-05T05:30:45.527Z,30.37
2019-04-05T05:31:18.729Z,30.23
2019-04-05T05:31:52.243Z,30.02
2019-04-05T05:32:25.582Z,29.60
2019-04-05T05:32:58.599Z,29.75
2019-04-05T05:33:33.299Z,29.42
2019-04-05T05:34:06.518Z,29.72
2019-04-05T05:34:39.588Z,29.67
2019-04-05T05:35:12.681Z,29.63
2019-04-05T05:35:46.136Z,29.80
2019-04-05T05:36:19.439Z,29.70
2019-04-05T05:36:52.481Z,29.50
2019-04-05T05:37:25.782Z,29.85
2019-04-05T05:37:59.343Z,29.67
2019-04-05T05:38:32.337Z,29.75
2019-04-05T05:39:07.059Z,29.55
2019-04-05T05:39:40.079Z,29.95
2019-04-05T05:40:13.539Z,29.67
2019-04-05T05:40:46.591Z,29.82
2019-04-05T05:41:19.645Z,29.82
2019-04-05T05:41:52.686Z,29.92
2019-04-05T05:42:25.914Z,29.57
2019-04-05T05:42:58.948Z,29.95
2019-04-05T05:43:31.936Z,29.85
2019-04-05T05:44:05.925Z,29.80
2019-04-05T05:44:38.970Z,29.70
2019-04-05T05:45:12.237Z,29.95
2019-04-05T05:45:45.350Z,30.62
2019-04-05T05:46:18.460Z,29.70
2019-04-05T05:46:51.583Z,30.17
2019-04-05T05:47:24.577Z,30.27
2019-04-05T05:47:57.613Z,30.27
2019-04-05T05:48:31.667Z,30.15
2019-04-05T05:49:04.953Z,29.87
2019-04-05T05:49:37.958Z,30.12
2019-04-05T05:50:11.421Z,29.75
2019-04-05T05:50:45.218Z,30.65
2019-04-05T05:51:18.406Z,29.85
2019-04-05T05:51:51.711Z,29.52
2019-04-05T05:52:25.252Z,30.02
2019-04-05T05:52:58.525Z,30.48
2019-04-05T05:53:31.671Z,30.52
2019-04-05T05:54:04.773Z,30.60
2019-04-05T05:54:38.112Z,31.02
2019-04-05T05:55:11.116Z,30.65
2019-04-05T05:55:44.054Z,30.12
2019-04-05T05:56:16.950Z,30.40
2019-04-05T05:56:50.040Z,30.15
2019-04-05T05:57:23.029Z,30.77
2019-04-05T05:57:58.667Z,30.20
2019-04-05T05:58:30.844Z,30.68
2019-04-05T05:59:04.156Z,30.12
2019-04-05T05:59:37.102Z,31.27
2019-04-05T06:00:12.586Z,31.87
2019-04-05T06:00:45.632Z,30.92
2019-04-05T06:01:18.663Z,30.90
2019-04-05T06:01:51.675Z,31.35
2019-04-05T06:02:24.853Z,30.90
2019-04-05T06:02:57.828Z,31.52
2019-04-05T06:03:30.841Z,31.23
2019-04-05T06:04:04.966Z,31.75
2019-04-05T06:04:37.807Z,31.12
2019-04-05T06:05:11.858Z,31.20
2019-04-05T06:05:45.121Z,31.52
2019-04-05T06:06:18.263Z,31.97
2019-04-05T06:06:51.541Z,31.60
2019-04-05T06:07:24.605Z,31.50
2019-04-05T06:07:58.774Z,31.27
2019-04-05T06:08:32.602Z,31.95
2019-04-05T06:09:07.024Z,32.33
2019-04-05T06:09:40.065Z,32.30
2019-04-05T06:10:13.305Z,32.85
2019-04-05T06:10:48.032Z,32.48
2019-04-05T06:11:21.087Z,32.50
2019-04-05T06:11:55.532Z,32.23
2019-04-05T06:12:28.677Z,32.55
2019-04-05T06:13:01.703Z,32.80
2019-04-05T06:13:34.600Z,33.48
2019-04-05T06:14:07.499Z,33.50
2019-04-05T06:14:40.531Z,33.42
2019-04-05T06:15:13.845Z,33.48
2019-04-05T06:15:46.784Z,33.85
2019-04-05T06:16:19.900Z,33.67
2019-04-05T06:16:52.941Z,33.95
2019-04-05T06:17:25.977Z,33.67
2019-04-05T06:18:05.010Z,33.73
2019-04-05T06:18:33.915Z,33.00
2019-04-05T06:19:06.935Z,33.38
2019-04-05T06:19:41.077Z,33.53
2019-04-05T06:20:14.685Z,33.38
2019-04-05T06:20:47.499Z,33.83
2019-04-05T06:21:20.430Z,33.85
2019-04-05T06:21:53.667Z,33.13
2019-04-05T06:22:26.688Z,33.80
2019-04-05T06:22:59.705Z,33.42
2019-04-05T06:23:34.081Z,33.65
2019-04-05T06:24:07.574Z,33.92
2019-04-05T06:24:40.743Z,33.65
2019-04-05T06:25:13.887Z,33.92
2019-04-05T06:25:46.961Z,33.58
2019-04-05T06:26:19.947Z,33.35
2019-04-05T06:26:52.951Z,33.28
2019-04-05T06:27:26.306Z,33.10
2019-04-05T06:28:00.036Z,32.95
2019-04-05T06:28:33.198Z,33.92
2019-04-05T06:29:06.266Z,33.40
2019-04-05T06:29:39.279Z,33.63
2019-04-05T06:30:12.532Z,33.23
2019-04-05T06:30:45.568Z,33.30
2019-04-05T06:31:18.622Z,32.85
2019-04-05T06:31:51.569Z,33.40
2019-04-05T06:32:24.568Z,33.85
2019-04-05T06:32:57.574Z,33.33
2019-04-05T06:33:31.653Z,33.20
2019-04-05T06:34:05.199Z,32.95
2019-04-05T06:34:38.216Z,32.90
2019-04-05T06:35:12.292Z,33.13
2019-04-05T06:35:45.304Z,32.95
2019-04-05T06:36:18.212Z,32.83
2019-04-05T06:36:51.378Z,32.95
2019-04-05T06:37:26.598Z,32.70
2019-04-05T06:37:59.660Z,33.00
2019-04-05T06:38:32.557Z,32.58
2019-04-05T06:39:06.875Z,33.08
2019-04-05T06:39:39.688Z,31.85
2019-04-05T06:40:12.733Z,31.97
2019-04-05T06:40:45.629Z,32.20
2019-04-05T06:41:18.666Z,32.33
2019-04-05T06:41:51.673Z,31.90
2019-04-05T06:42:24.808Z,31.42
2019-04-05T06:42:58.150Z,31.93
2019-04-05T06:43:31.230Z,31.68
2019-04-05T06:44:04.414Z,31.65
2019-04-05T06:44:37.488Z,31.52
2019-04-05T06:45:10.626Z,31.57
2019-04-05T06:45:43.738Z,32.05
2019-04-05T06:46:16.868Z,31.35
2019-04-05T06:46:50.053Z,31.33
2019-04-05T06:47:23.196Z,31.77
2019-04-05T06:47:56.410Z,31.33
2019-04-05T06:48:29.886Z,30.82
2019-04-05T06:49:03.111Z,31.55
2019-04-05T06:49:36.231Z,30.68
2019-04-05T06:50:09.336Z,31.35
2019-04-05T06:50:42.488Z,31.07
2019-04-05T06:51:15.531Z,30.65
2019-04-05T06:51:49.764Z,30.90
2019-04-05T06:52:22.836Z,31.52
2019-04-05T06:52:55.882Z,31.02
2019-04-05T06:53:29.958Z,30.77
2019-04-05T06:54:03.472Z,30.80
2019-04-05T06:54:36.668Z,30.72
2019-04-05T06:55:10.956Z,30.50
2019-04-05T06:55:44.016Z,30.65
2019-04-05T06:56:17.072Z,30.95
2019-04-05T06:56:50.262Z,30.80
2019-04-05T06:57:23.243Z,30.40
2019-04-05T06:57:56.304Z,30.62
2019-04-05T06:58:29.564Z,30.23
2019-04-05T06:59:04.353Z,30.27
2019-04-05T06:59:37.437Z,30.10
2019-04-05T07:00:10.674Z,30.17
2019-04-05T07:00:56.407Z,30.60
2019-04-05T07:01:18.940Z,29.70
2019-04-05T07:01:52.060Z,30.43
2019-04-05T07:02:25.246Z,31.02
2019-04-05T07:02:58.748Z,30.88
2019-04-05T07:03:31.916Z,30.32
2019-04-05T07:04:05.158Z,30.50
2019-04-05T07:04:38.207Z,30.70
2019-04-05T07:05:11.511Z,30.37
2019-04-05T07:05:44.532Z,30.85
2019-04-05T07:06:17.667Z,31.17
2019-04-05T07:06:50.707Z,30.65
2019-04-05T07:07:23.837Z,30.32
2019-04-05T07:07:56.860Z,30.77
2019-04-05T07:08:29.911Z,30.35
2019-04-05T07:09:04.963Z,30.35
2019-04-05T07:09:38.011Z,30.32
2019-04-05T07:10:11.957Z,30.27
2019-04-05T07:10:45.381Z,30.57
2019-04-05T07:11:18.558Z,30.48
2019-04-05T07:11:51.575Z,30.25
2019-04-05T07:12:24.411Z,30.70
2019-04-05T07:12:58.535Z,30.97
2019-04-05T07:13:31.663Z,30.45
2019-04-05T07:14:04.778Z,30.68